Time;durP1;ratioP1;P1;durP2;ratioP2;P2;SDS_P1;SDS_P2;PMS_P1;PMS_P2;Temp;Humidity;BMP_temperature;BMP_pressure;BME280_temperature;BME280_humidity;BME280_pressure;Samples;Min_cycle;Max_cycle;Signal;HPM_P1;HPM_P2
2023/02/10 00:01:58;;;;;;;1999.90;999.90;;;4.60;1.00;;;;;;5034339;28;20219;-68
2023/02/10 00:04:23;;;;;;;1999.90;999.90;;;4.60;1.00;;;;;;5034735;28;20180;-68
2023/02/10 00:06:49;;;;;;;1999.90;999.90;;;4.60;1.00;;;;;;5034594;28;20168;-68
2023/02/10 00:09:15;;;;;;;1999.90;999.90;;;4.70;99.90;;;;;;5034659;28;20666;-68
2023/02/10 00:11:59;;;;;;;1999.90;999.90;;;4.60;99.90;;;;;;5035463;28;20207;-69
2023/02/10 00:14:26;;;;;;;1999.90;999.90;;;4.60;1.00;;;;;;5039840;28;20167;-68
2023/02/10 00:16:53;;;;;;;1999.90;999.90;;;4.50;1.00;;;;;;5039111;28;20458;-69
2023/02/10 00:19:20;;;;;;;1999.90;999.90;;;4.60;1.00;;;;;;5038935;28;20557;-69
2023/02/10 00:21:46;;;;;;;1999.90;999.90;;;4.60;91.50;;;;;;5039347;28;20498;-69
2023/02/10 00:24:11;;;;;;;1999.90;999.90;;;4.50;99.90;;;;;;5039355;28;20437;-69
2023/02/10 00:26:37;;;;;;;1999.90;999.90;;;4.60;99.90;;;;;;5039997;28;20962;-67
2023/02/10 00:29:03;;;;;;;1999.90;999.90;;;4.60;99.90;;;;;;5039786;28;20207;-69
2023/02/10 00:31:29;;;;;;;1999.90;999.90;;;4.60;99.90;;;;;;5038803;28;20820;-69
2023/02/10 00:33:54;;;;;;;1999.90;999.90;;;4.60;99.90;;;;;;5038497;28;20407;-69
2023/02/10 00:36:21;;;;;;;1999.90;999.90;;;4.60;99.90;;;;;;5040084;28;20218;-69
2023/02/10 00:38:47;;;;;;;1999.90;999.90;;;4.60;99.90;;;;;;5038704;28;20596;-69
2023/02/10 00:41:17;;;;;;;1999.90;999.90;;;4.60;99.90;;;;;;5037756;28;20407;-69
2023/02/10 00:43:44;;;;;;;1999.90;999.90;;;4.60;99.90;;;;;;5038298;28;20169;-69
2023/02/10 00:46:11;;;;;;;1999.90;999.90;;;4.60;99.90;;;;;;5038249;28;20450;-68
2023/02/10 00:48:37;;;;;;;1999.90;999.90;;;4.60;99.90;;;;;;5038666;28;20403;-69
2023/02/10 00:51:02;;;;;;;1999.90;999.90;;;4.70;99.90;;;;;;5037481;28;20431;-69
2023/02/10 00:53:28;;;;;;;1999.90;999.90;;;4.60;99.90;;;;;;5038232;28;20180;-69
2023/02/10 00:55:54;;;;;;;1999.90;999.90;;;4.60;99.90;;;;;;5038122;28;20399;-68
2023/02/10 00:58:19;;;;;;;1999.90;999.90;;;4.60;99.90;;;;;;5037959;28;20199;-69
2023/02/10 01:00:45;;;;;;;1999.90;999.90;;;4.60;91.20;;;;;;5039039;28;20184;-69
2023/02/10 01:03:11;;;;;;;1999.90;999.90;;;4.60;99.90;;;;;;5039724;28;20179;-69
2023/02/10 01:05:37;;;;;;;1999.90;999.90;;;4.70;99.40;;;;;;5039696;28;20176;-69
2023/02/10 01:08:02;;;;;;;1999.90;999.90;;;4.70;99.90;;;;;;5039615;28;20180;-69
2023/02/10 01:10:28;;;;;;;1999.90;999.90;;;4.70;83.30;;;;;;5039070;28;20219;-69
2023/02/10 01:12:54;;;;;;;1999.90;999.90;;;4.70;99.90;;;;;;5038639;28;20656;-69
2023/02/10 01:15:19;;;;;;;1999.90;999.90;;;4.80;99.90;;;;;;5038840;28;20169;-69
2023/02/10 01:17:45;;;;;;;1999.90;999.90;;;4.80;22.70;;;;;;5038217;28;20203;-69
2023/02/10 01:20:11;;;;;;;1999.90;999.90;;;4.70;1.00;;;;;;5039327;28;20184;-68
2023/02/10 01:22:36;;;;;;;1999.90;999.90;;;4.70;1.00;;;;;;5040436;28;20222;-68
2023/02/10 01:25:03;;;;;;;1999.90;999.90;;;4.70;1.00;;;;;;5040731;28;20780;-68
2023/02/10 01:27:29;;;;;;;1999.90;999.90;;;4.70;1.00;;;;;;5039805;28;20384;-68
2023/02/10 01:29:54;;;;;;;1999.90;999.90;;;4.70;1.00;;;;;;5039976;28;20949;-69
2023/02/10 01:32:20;;;;;;;1999.90;999.90;;;4.80;7.90;;;;;;5040517;28;20486;-69
2023/02/10 01:34:46;;;;;;;1999.90;999.90;;;4.80;1.00;;;;;;5041160;28;20257;-68
2023/02/10 01:37:11;;;;;;;1999.90;999.90;;;4.80;14.40;;;;;;5040797;28;20277;-69
2023/02/10 01:39:37;;;;;;;1999.90;999.90;;;4.80;1.00;;;;;;5040354;28;20263;-68
2023/02/10 01:42:03;;;;;;;1999.90;999.90;;;4.80;1.00;;;;;;5040746;28;20165;-69
2023/02/10 01:44:28;;;;;;;1999.90;999.90;;;4.80;1.00;;;;;;5040478;28;20212;-69
2023/02/10 01:46:55;;;;;;;1999.90;999.90;;;4.90;99.90;;;;;;5040614;28;20412;-68
2023/02/10 01:49:28;;;;;;;1999.90;999.90;;;4.90;99.90;;;;;;5038626;28;20271;-68
2023/02/10 01:51:59;;;;;;;1999.90;999.90;;;4.90;99.90;;;;;;5034307;28;20403;-68
2023/02/10 01:54:41;;;;;;;1999.90;999.90;;;4.90;99.90;;;;;;5034538;28;20407;-68
2023/02/10 01:57:07;;;;;;;1999.90;999.90;;;4.80;99.90;;;;;;5034967;28;20461;-68
2023/02/10 01:59:36;;;;;;;1999.90;999.90;;;4.80;99.90;;;;;;5034708;28;20438;-68
2023/02/10 02:02:06;;;;;;;1999.90;999.90;;;4.80;99.90;;;;;;5034381;28;20418;-68
2023/02/10 02:04:37;;;;;;;1999.90;999.90;;;4.80;99.90;;;;;;5034293;28;20399;-68
2023/02/10 02:07:03;;;;;;;1999.90;999.90;;;4.70;99.90;;;;;;5034482;28;20468;-68
2023/02/10 02:09:28;;;;;;;1999.90;999.90;;;4.80;99.90;;;;;;5034214;28;20431;-68
2023/02/10 02:11:57;;;;;;;1999.90;999.90;;;4.80;99.90;;;;;;5033105;28;20168;-68
2023/02/10 02:14:49;;;;;;;1999.90;999.90;;;4.80;99.90;;;;;;5034114;28;20534;-68
2023/02/10 02:17:23;;;;;;;1999.90;999.90;;;4.80;99.90;;;;;;5033931;28;20451;-68
2023/02/10 02:20:41;;;;;;;1999.90;999.90;;;4.80;99.90;;;;;;5034838;28;20457;-68
2023/02/10 02:23:41;;;;;;;1999.90;999.90;;;4.80;99.90;;;;;;5033732;28;20899;-68
2023/02/10 02:26:23;;;;;;;1999.90;999.90;;;4.80;99.90;;;;;;5034457;28;20414;-69
2023/02/10 02:29:10;;;;;;;1999.90;999.90;;;4.80;99.90;;;;;;5033828;28;20466;-68
2023/02/10 02:31:44;;;;;;;1999.90;999.90;;;4.70;99.90;;;;;;5034206;28;20480;-68
2023/02/10 02:34:09;;;;;;;1999.90;999.90;;;4.70;99.90;;;;;;5034063;28;20457;-68
2023/02/10 02:36:41;;;;;;;1999.90;999.90;;;4.70;99.90;;;;;;5034452;28;20415;-68
2023/02/10 02:39:07;;;;;;;1999.90;999.90;;;4.70;99.90;;;;;;5034369;28;20211;-68
2023/02/10 02:41:34;;;;;;;1999.90;999.90;;;4.60;99.90;;;;;;5034668;28;20403;-68
2023/02/10 02:44:02;;;;;;;1999.90;999.90;;;4.60;99.90;;;;;;5034649;28;20172;-68
2023/02/10 02:46:52;;;;;;;1999.90;999.90;;;4.50;99.90;;;;;;5034825;28;20745;-69
2023/02/10 02:49:23;;;;;;;1999.90;999.90;;;4.50;99.90;;;;;;5038825;28;20524;-69
2023/02/10 02:51:52;;;;;;;1999.90;999.90;;;4.50;99.90;;;;;;5038638;28;20403;-69
2023/02/10 02:54:24;;;;;;;1999.90;999.90;;;4.50;99.90;;;;;;5037140;28;20399;-69
2023/02/10 02:56:54;;;;;;;1999.90;999.90;;;4.60;99.90;;;;;;5036885;28;20825;-69
2023/02/10 02:59:38;;;;;;;1999.90;999.90;;;4.60;99.90;;;;;;5037862;28;20419;-69
2023/02/10 03:02:10;;;;;;;1999.90;999.90;;;4.60;99.90;;;;;;5036325;28;20877;-69
2023/02/10 03:04:37;;;;;;;1999.90;999.90;;;4.60;99.90;;;;;;5036672;28;20469;-69
2023/02/10 03:07:03;;;;;;;1999.90;999.90;;;4.60;99.90;;;;;;5039388;28;20406;-68
2023/02/10 03:09:30;;;;;;;1999.90;999.90;;;4.60;99.90;;;;;;5038969;28;20431;-68
2023/02/10 03:11:56;;;;;;;1999.90;999.90;;;4.60;99.90;;;;;;5038729;28;20403;-69
2023/02/10 03:14:22;;;;;;;1999.90;999.90;;;4.60;99.90;;;;;;5038174;28;20411;-69
2023/02/10 03:16:47;;;;;;;1999.90;999.90;;;4.70;99.90;;;;;;5036705;28;20429;-68
2023/02/10 03:19:13;;;;;;;1999.90;999.90;;;4.70;99.90;;;;;;5036284;28;20244;-69
2023/02/10 03:21:39;;;;;;;1999.90;999.90;;;4.70;99.90;;;;;;5036029;28;20874;-69
2023/02/10 03:24:05;;;;;;;1999.90;999.90;;;4.70;99.90;;;;;;5039798;28;20889;-69
2023/02/10 03:26:31;;;;;;;1999.90;999.90;;;4.70;99.90;;;;;;5038773;28;20661;-68
2023/02/10 03:28:57;;;;;;;1999.90;999.90;;;4.70;99.90;;;;;;5038058;28;20427;-68
2023/02/10 03:31:23;;;;;;;1999.90;999.90;;;4.60;99.90;;;;;;5037770;28;20403;-68
2023/02/10 03:33:48;;;;;;;1999.90;999.90;;;4.60;99.90;;;;;;5037850;28;20494;-68
2023/02/10 03:36:14;;;;;;;1999.90;999.90;;;4.60;99.90;;;;;;5037004;28;20263;-68
2023/02/10 03:38:40;;;;;;;1999.90;999.90;;;4.60;99.90;;;;;;5036880;28;20196;-68
2023/02/10 03:41:06;;;;;;;1999.90;999.90;;;4.60;99.90;;;;;;5037106;28;20955;-68
2023/02/10 03:43:31;;;;;;;1999.90;999.90;;;4.70;99.90;;;;;;5037854;28;20493;-68
2023/02/10 03:46:04;;;;;;;1999.90;999.90;;;4.70;99.90;;;;;;5037042;28;20168;-69
2023/02/10 03:48:33;;;;;;;1999.90;999.90;;;4.60;99.90;;;;;;5037575;28;20180;-68
2023/02/10 03:50:59;;;;;;;1999.90;999.90;;;4.40;99.90;;;;;;5037100;28;20955;-68
2023/02/10 03:53:25;;;;;;;1999.90;999.90;;;4.30;99.90;;;;;;5037506;28;20912;-68
2023/02/10 03:55:51;;;;;;;1999.90;999.90;;;4.10;99.90;;;;;;5036942;28;20419;-68
2023/02/10 03:58:16;;;;;;;1999.90;999.90;;;4.00;99.90;;;;;;5037228;28;20817;-68
2023/02/10 04:00:42;;;;;;;1999.90;999.90;;;3.90;99.90;;;;;;5037135;28;20190;-68
2023/02/10 04:03:08;;;;;;;1999.90;999.90;;;3.80;99.90;;;;;;5037354;28;20652;-68
2023/02/10 04:05:33;;;;;;;1999.90;999.90;;;3.70;99.90;;;;;;5036991;28;20256;-68
2023/02/10 04:07:59;;;;;;;1999.90;999.90;;;3.70;99.90;;;;;;5037456;28;20196;-68
2023/02/10 04:10:25;;;;;;;1999.90;999.90;;;3.60;99.90;;;;;;5036623;28;20547;-68
2023/02/10 04:12:51;;;;;;;1999.90;999.90;;;3.60;1.00;;;;;;5037900;28;20419;-68
2023/02/10 04:15:17;;;;;;;1999.90;999.90;;;3.60;1.00;;;;;;5037449;28;20407;-68
2023/02/10 04:17:42;;;;;;;1999.90;999.90;;;3.60;1.00;;;;;;5037353;28;20207;-68
2023/02/10 04:20:08;;;;;;;1999.90;999.90;;;3.50;1.00;;;;;;5036965;28;20419;-68
2023/02/10 04:22:34;;;;;;;1999.90;999.90;;;3.40;1.00;;;;;;5037322;28;20199;-68
2023/02/10 04:24:59;;;;;;;1999.90;999.90;;;3.30;1.00;;;;;;5036701;28;20915;-68
2023/02/10 04:27:25;;;;;;;1999.90;999.90;;;3.30;1.00;;;;;;5036695;28;20246;-68
2023/02/10 04:29:51;;;;;;;1999.90;999.90;;;3.30;1.00;;;;;;5035272;28;20219;-68
2023/02/10 04:32:16;;;;;;;1999.90;999.90;;;3.20;1.00;;;;;;5035625;28;20168;-68
2023/02/10 04:34:42;;;;;;;1999.90;999.90;;;3.20;1.00;;;;;;5034477;28;20218;-68
2023/02/10 04:37:08;;;;;;;1999.90;999.90;;;3.20;1.00;;;;;;5035269;28;20309;-68
2023/02/10 04:39:33;;;;;;;1999.90;999.90;;;3.10;1.00;;;;;;5035753;28;20189;-68
2023/02/10 04:41:59;;;;;;;1999.90;999.90;;;3.10;1.00;;;;;;5035701;28;20182;-68
2023/02/10 04:44:25;;;;;;;1999.90;999.90;;;3.10;1.00;;;;;;5035917;28;20168;-68
2023/02/10 04:46:50;;;;;;;1999.90;999.90;;;3.10;1.00;;;;;;5035758;28;20407;-69
2023/02/10 04:49:16;;;;;;;1999.90;999.90;;;3.10;1.00;;;;;;5033421;28;20658;-68
2023/02/10 04:51:42;;;;;;;1999.90;999.90;;;3.10;1.00;;;;;;5032626;28;20169;-68
2023/02/10 04:54:08;;;;;;;1999.90;999.90;;;3.10;1.00;;;;;;5032840;28;20472;-68
2023/02/10 04:56:33;;;;;;;1999.90;999.90;;;3.10;1.00;;;;;;5032686;28;20415;-68
2023/02/10 04:58:59;;;;;;;1999.90;999.90;;;3.00;1.00;;;;;;5032517;28;20208;-68
2023/02/10 05:01:25;;;;;;;1999.90;999.90;;;3.00;1.00;;;;;;5032359;28;20165;-68
2023/02/10 05:03:50;;;;;;;1999.90;999.90;;;3.00;1.00;;;;;;5032579;28;20180;-69
2023/02/10 05:06:16;;;;;;;1999.90;999.90;;;3.00;1.00;;;;;;5040677;28;20169;-69
2023/02/10 05:08:42;;;;;;;1999.90;999.90;;;2.90;1.00;;;;;;5045274;28;20187;-69
2023/02/10 05:11:09;;;;;;;1999.90;999.90;;;2.90;1.00;;;;;;5045012;28;20172;-69
2023/02/10 05:13:35;;;;;;;1999.90;999.90;;;2.80;1.00;;;;;;5045871;28;20411;-68
2023/02/10 05:16:02;;;;;;;1999.90;999.90;;;2.80;1.00;;;;;;5045654;28;20403;-69
2023/02/10 05:18:29;;;;;;;1999.90;999.90;;;2.80;1.00;;;;;;5045798;28;20454;-68
2023/02/10 05:20:55;;;;;;;1999.90;999.90;;;2.80;1.00;;;;;;5045905;28;20434;-69
2023/02/10 05:23:21;;;;;;;1999.90;999.90;;;2.80;1.00;;;;;;5028242;28;20419;-69
2023/02/10 05:25:47;;;;;;;1999.90;999.90;;;2.90;1.00;;;;;;5044234;28;20481;-69
2023/02/10 05:28:12;;;;;;;1999.90;999.90;;;4.10;1.00;;;;;;5004486;28;1129025;-69
2023/02/10 05:30:38;;;;;;;1999.90;999.90;;;2.90;1.00;;;;;;5027895;28;20199;-69
2023/02/10 05:33:03;;;;;;;1999.90;999.90;;;3.00;1.00;;;;;;5044432;28;20233;-69
2023/02/10 05:35:29;;;;;;;1999.90;999.90;;;2.90;1.00;;;;;;5043861;28;20184;-69
2023/02/10 05:37:55;;;;;;;1999.90;999.90;;;2.90;8.40;;;;;;5044187;28;20238;-69
2023/02/10 05:40:20;;;;;;;1999.90;999.90;;;2.90;16.90;;;;;;5043721;28;20199;-69
2023/02/10 05:42:46;;;;;;;1999.90;999.90;;;2.90;21.10;;;;;;5041989;28;20164;-69
2023/02/10 05:45:11;;;;;;;1999.90;999.90;;;3.00;32.30;;;;;;5043164;28;20172;-69
2023/02/10 05:47:37;;;;;;;1999.90;999.90;;;3.00;50.90;;;;;;5044916;28;20507;-69
2023/02/10 05:50:03;;;;;;;1999.90;999.90;;;3.00;72.90;;;;;;5043807;28;20188;-69
2023/02/10 05:52:28;;;;;;;1999.90;999.90;;;3.00;99.90;;;;;;5044001;28;20176;-69
2023/02/10 05:54:54;;;;;;;1999.90;999.90;;;3.10;99.90;;;;;;5040464;28;20180;-69
2023/02/10 05:57:19;;;;;;;1999.90;999.90;;;3.20;99.90;;;;;;5036045;28;20207;-68
2023/02/10 05:59:45;;;;;;;1999.90;999.90;;;3.10;99.90;;;;;;5035549;28;20339;-68
2023/02/10 06:02:10;;;;;;;1999.90;999.90;;;3.10;99.90;;;;;;5035532;28;20580;-69
2023/02/10 06:04:36;;;;;;;1999.90;999.90;;;3.10;99.90;;;;;;5036355;28;20175;-69
2023/02/10 06:07:02;;;;;;;1999.90;999.90;;;3.10;99.90;;;;;;5037128;28;20226;-68
2023/02/10 06:09:27;;;;;;;1999.90;999.90;;;3.10;99.90;;;;;;5036866;28;20196;-68
2023/02/10 06:11:53;;;;;;;1999.90;999.90;;;3.20;99.90;;;;;;5036264;28;20168;-69
2023/02/10 06:14:20;;;;;;;1999.90;999.90;;;3.30;99.90;;;;;;5037483;28;20234;-69
2023/02/10 06:16:45;;;;;;;1999.90;999.90;;;3.30;99.90;;;;;;5037354;28;20168;-68
2023/02/10 06:19:11;;;;;;;1999.90;999.90;;;3.20;99.90;;;;;;5036044;28;20208;-69
2023/02/10 06:21:36;;;;;;;1999.90;999.90;;;3.30;99.90;;;;;;5037801;28;20505;-69
2023/02/10 06:24:02;;;;;;;1999.90;999.90;;;3.20;99.90;;;;;;5035081;28;20546;-69
2023/02/10 06:26:28;;;;;;;1999.90;999.90;;;3.20;99.90;;;;;;5035737;28;20690;-67
2023/02/10 06:28:54;;;;;;;1999.90;999.90;;;3.20;99.90;;;;;;5036857;28;20191;-69
2023/02/10 06:31:20;;;;;;;1999.90;999.90;;;3.20;99.90;;;;;;5035763;28;20251;-69
2023/02/10 06:33:47;;;;;;;1999.90;999.90;;;3.10;99.90;;;;;;5036677;28;20961;-69
2023/02/10 06:36:13;;;;;;;1999.90;999.90;;;3.10;99.90;;;;;;5036698;28;20168;-69
2023/02/10 06:38:38;;;;;;;1999.90;999.90;;;3.10;99.90;;;;;;5032286;28;20942;-68
2023/02/10 06:41:05;;;;;;;1999.90;999.90;;;3.00;99.90;;;;;;5031608;28;20792;-68
2023/02/10 06:43:31;;;;;;;1999.90;999.90;;;3.10;99.90;;;;;;5031884;28;20248;-68
2023/02/10 06:45:56;;;;;;;1999.90;999.90;;;3.10;99.90;;;;;;5031791;28;20505;-68
2023/02/10 06:48:22;;;;;;;1999.90;999.90;;;3.10;99.90;;;;;;5031750;28;20538;-68
2023/02/10 06:50:48;;;;;;;1999.90;999.90;;;3.10;99.90;;;;;;5031714;28;20271;-68
2023/02/10 06:53:13;;;;;;;1999.90;999.90;;;3.10;99.90;;;;;;5031942;28;20177;-68
2023/02/10 06:55:39;;;;;;;1999.90;999.90;;;3.20;99.90;;;;;;5031732;28;20215;-69
2023/02/10 06:58:04;;;;;;;1999.90;999.90;;;3.20;99.90;;;;;;5033853;28;20189;-68
2023/02/10 07:00:33;;;;;;;1999.90;999.90;;;3.30;99.90;;;;;;5035519;28;20557;-68
2023/02/10 07:02:58;;;;;;;1999.90;999.90;;;3.30;99.90;;;;;;5035319;28;20589;-68
2023/02/10 07:05:24;;;;;;;1999.90;999.90;;;3.40;99.90;;;;;;5035464;28;20395;-68
2023/02/10 07:07:50;;;;;;;1999.90;999.90;;;3.40;99.90;;;;;;5035496;28;20665;-69
2023/02/10 07:10:17;;;;;;;1999.90;999.90;;;3.50;99.90;;;;;;5035258;28;20426;-69
2023/02/10 07:12:43;;;;;;;1999.90;999.90;;;3.50;99.90;;;;;;5035642;28;20407;-68
2023/02/10 07:15:09;;;;;;;1999.90;999.90;;;3.50;99.90;;;;;;5035712;28;20465;-68
2023/02/10 07:17:36;;;;;;;1999.90;999.90;;;3.40;99.90;;;;;;5035290;28;20442;-68
2023/02/10 07:20:03;;;;;;;1999.90;999.90;;;3.50;99.90;;;;;;5035440;28;20474;-68
2023/02/10 07:22:28;;;;;;;1999.90;999.90;;;3.50;99.90;;;;;;5035893;28;20407;-68
2023/02/10 07:24:54;;;;;;;1999.90;999.90;;;3.50;99.90;;;;;;5037421;28;20431;-69
2023/02/10 07:27:19;;;;;;;1999.90;999.90;;;3.50;99.90;;;;;;5036007;28;20164;-68
2023/02/10 07:29:45;;;;;;;1999.90;999.90;;;3.50;99.90;;;;;;5035490;28;20207;-68
2023/02/10 07:32:10;;;;;;;1999.90;999.90;;;3.50;99.90;;;;;;5035600;28;20820;-68
2023/02/10 07:34:36;;;;;;;1999.90;999.90;;;3.40;99.90;;;;;;5035489;28;20168;-68
2023/02/10 07:37:02;;;;;;;1999.90;999.90;;;3.40;99.90;;;;;;5035384;28;20664;-68
2023/02/10 07:39:27;;;;;;;1999.90;999.90;;;3.30;99.90;;;;;;5035379;28;20222;-68
2023/02/10 07:41:53;;;;;;;1999.90;999.90;;;3.30;99.90;;;;;;5035057;28;20172;-68
2023/02/10 07:44:20;;;;;;;1999.90;999.90;;;3.30;99.90;;;;;;5035323;28;20171;-68
2023/02/10 07:46:46;;;;;;;1999.90;999.90;;;3.20;99.90;;;;;;5035174;28;20453;-68
2023/02/10 07:49:12;;;;;;;1999.90;999.90;;;3.20;99.90;;;;;;5035030;28;20441;-68
2023/02/10 07:51:38;;;;;;;1999.90;999.90;;;3.30;99.90;;;;;;5035022;28;20418;-69
2023/02/10 07:54:05;;;;;;;1999.90;999.90;;;3.30;99.90;;;;;;5035162;28;20191;-69
2023/02/10 07:56:31;;;;;;;1999.90;999.90;;;3.30;99.90;;;;;;5038941;28;20208;-69
2023/02/10 07:58:57;;;;;;;1999.90;999.90;;;3.40;99.90;;;;;;5038656;28;20196;-69
2023/02/10 08:01:22;;;;;;;1999.90;999.90;;;3.40;99.90;;;;;;5038021;28;20167;-69
2023/02/10 08:03:48;;;;;;;1999.90;999.90;;;3.40;99.90;;;;;;5039285;28;20689;-69
2023/02/10 08:06:20;;;;;;;1999.90;999.90;;;3.40;99.90;;;;;;5040272;28;20183;-69
2023/02/10 08:08:46;;;;;;;1999.90;999.90;;;3.50;99.90;;;;;;5039238;28;20164;-69
2023/02/10 08:11:11;;;;;;;1999.90;999.90;;;3.40;99.90;;;;;;5039575;28;20415;-69
2023/02/10 08:13:37;;;;;;;1999.90;999.90;;;3.40;99.90;;;;;;5039350;28;20176;-69
2023/02/10 08:16:04;;;;;;;1999.90;999.90;;;3.40;99.90;;;;;;5039884;28;20180;-68
2023/02/10 08:18:30;;;;;;;1999.90;999.90;;;3.40;99.90;;;;;;5044391;28;20294;-69
2023/02/10 08:20:58;;;;;;;1999.90;999.90;;;3.40;99.90;;;;;;5046822;28;20434;-69
2023/02/10 08:23:24;;;;;;;1999.90;999.90;;;3.40;99.90;;;;;;5029156;28;20180;-69
2023/02/10 08:25:50;;;;;;;1999.90;999.90;;;3.60;99.90;;;;;;5046328;28;20411;-69
2023/02/10 08:28:17;;;;;;;1999.90;999.90;;;3.60;99.90;;;;;;5039586;28;20187;-69
2023/02/10 08:30:42;;;;;;;1999.90;999.90;;;3.60;99.90;;;;;;5033637;28;20489;-68
2023/02/10 08:33:08;;;;;;;1999.90;999.90;;;3.70;99.90;;;;;;5033936;28;20896;-68
2023/02/10 08:35:36;;;;;;;1999.90;999.90;;;3.80;99.90;;;;;;5034167;28;20176;-68
2023/02/10 08:38:02;;;;;;;1999.90;999.90;;;3.90;99.90;;;;;;5033812;28;20219;-68
2023/02/10 08:40:27;;;;;;;1999.90;999.90;;;3.90;99.90;;;;;;5033783;28;20450;-69
2023/02/10 08:42:53;;;;;;;1999.90;999.90;;;4.00;99.90;;;;;;5041031;28;20399;-69
2023/02/10 08:45:19;;;;;;;1999.90;999.90;;;4.10;99.90;;;;;;5045363;28;20234;-69
2023/02/10 08:47:44;;;;;;;1999.90;999.90;;;4.20;99.90;;;;;;5044958;28;20172;-68
2023/02/10 08:50:10;;;;;;;1999.90;999.90;;;4.30;99.90;;;;;;5044551;28;20192;-69
2023/02/10 08:52:35;;;;;;;1999.90;999.90;;;4.50;99.90;;;;;;5044642;28;20222;-69
2023/02/10 08:55:01;;;;;;;1999.90;999.90;;;4.70;99.90;;;;;;5045158;28;20210;-69
2023/02/10 08:57:28;;;;;;;1999.90;999.90;;;4.80;99.90;;;;;;5027152;28;20204;-69
2023/02/10 08:59:53;;;;;;;1999.90;999.90;;;5.00;99.90;;;;;;5044706;28;20422;-68
2023/02/10 09:02:19;;;;;;;1999.90;999.90;;;5.20;99.90;;;;;;5044886;28;20410;-69
2023/02/10 09:04:44;;;;;;;1999.90;999.90;;;5.50;99.90;;;;;;5044513;28;20176;-69
2023/02/10 09:07:11;;;;;;;1999.90;999.90;;;5.60;99.90;;;;;;5044162;28;20172;-69
2023/02/10 09:09:39;;;;;;;1999.90;999.90;;;5.70;99.90;;;;;;5045066;28;20214;-68
2023/02/10 09:12:04;;;;;;;1999.90;999.90;;;5.80;99.90;;;;;;5044120;28;20426;-69
2023/02/10 09:14:30;;;;;;;1999.90;999.90;;;5.90;99.90;;;;;;5044797;28;20423;-69
2023/02/10 09:16:56;;;;;;;1999.90;999.90;;;5.90;99.90;;;;;;5043877;28;20175;-69
2023/02/10 09:19:23;;;;;;;1999.90;999.90;;;6.00;99.90;;;;;;5038692;28;20553;-68
2023/02/10 09:21:49;;;;;;;1999.90;999.90;;;5.90;99.90;;;;;;5036092;28;20525;-69
2023/02/10 09:24:16;;;;;;;1999.90;999.90;;;6.00;99.90;;;;;;5035300;28;20434;-69
2023/02/10 09:26:42;;;;;;;1999.90;999.90;;;5.90;99.90;;;;;;5034438;28;20909;-68
2023/02/10 09:29:08;;;;;;;1999.90;999.90;;;6.00;99.90;;;;;;5033289;28;20968;-69
2023/02/10 09:31:34;;;;;;;1999.90;999.90;;;6.00;99.90;;;;;;5030519;28;20407;-68
2023/02/10 09:34:00;;;;;;;1999.90;999.90;;;6.00;99.90;;;;;;5031877;28;20411;-68
2023/02/10 09:36:25;;;;;;;1999.90;999.90;;;6.10;99.90;;;;;;5032508;28;20414;-68
2023/02/10 09:38:51;;;;;;;1999.90;999.90;;;6.20;99.90;;;;;;5032068;28;20204;-69
2023/02/10 09:41:32;;;;;;;1999.90;999.90;;;6.20;99.90;;;;;;5031835;28;20179;-69
2023/02/10 09:44:06;;;;;;;1999.90;999.90;;;6.40;99.90;;;;;;5032219;28;20665;-68
2023/02/10 09:46:59;;;;;;;1999.90;999.90;;;6.50;99.90;;;;;;5031699;28;20399;-69
2023/02/10 09:50:02;;;;;;;1999.90;999.90;;;6.70;99.90;;;;;;5032374;28;20427;-69
2023/02/10 09:53:09;;;;;;;1999.90;999.90;;;6.90;99.90;;;;;;5032170;28;20497;-68
2023/02/10 09:55:49;;;;;;;1999.90;999.90;;;7.00;99.90;;;;;;5031745;28;20770;-69
2023/02/10 09:58:38;;;;;;;1999.90;999.90;;;7.10;99.90;;;;;;5032358;28;20450;-69
2023/02/10 10:01:24;;;;;;;1999.90;999.90;;;7.20;99.90;;;;;;5031836;28;20463;-69
2023/02/10 10:04:01;;;;;;;1999.90;999.90;;;7.30;99.90;;;;;;5036510;28;20408;-69
2023/02/10 10:06:33;;;;;;;1999.90;999.90;;;7.40;99.90;;;;;;5037481;28;20430;-68
2023/02/10 10:09:01;;;;;;;1999.90;999.90;;;7.40;99.90;;;;;;5036874;28;20419;-69
2023/02/10 10:11:39;;;;;;;1999.90;999.90;;;7.60;99.90;;;;;;5036585;28;20458;-70
2023/02/10 10:14:13;;;;;;;1999.90;999.90;;;7.70;99.90;;;;;;5037183;28;20492;-69
2023/02/10 10:17:12;;;;;;;1999.90;999.90;;;7.80;99.90;;;;;;5036251;28;20402;-69
2023/02/10 10:20:04;;;;;;;1999.90;999.90;;;7.90;99.90;;;;;;5036681;28;20433;-69
2023/02/10 10:23:00;;;;;;;1999.90;999.90;;;8.00;99.90;;;;;;5036768;28;20428;-69
2023/02/10 10:25:54;;;;;;;1999.90;999.90;;;8.00;99.90;;;;;;5036890;28;20875;-69
2023/02/10 10:28:34;;;;;;;1999.90;999.90;;;8.20;99.90;;;;;;5038254;28;20915;-69
2023/02/10 10:31:18;;;;;;;1999.90;999.90;;;8.10;99.90;;;;;;5037919;28;20424;-69
2023/02/10 10:33:52;;;;;;;1999.90;999.90;;;8.20;99.90;;;;;;5041533;28;20403;-69
2023/02/10 10:36:22;;;;;;;1999.90;999.90;;;8.20;99.90;;;;;;5042260;28;20389;-70
2023/02/10 10:38:54;;;;;;;1999.90;999.90;;;8.20;99.90;;;;;;5040569;28;20642;-70
2023/02/10 10:41:27;;;;;;;1999.90;999.90;;;8.30;99.90;;;;;;5044640;28;20447;-68
2023/02/10 10:43:54;;;;;;;1999.90;999.90;;;8.40;99.90;;;;;;5049590;28;20401;-68
2023/02/10 10:46:45;;;;;;;1999.90;999.90;;;8.50;99.90;;;;;;5028817;28;20401;-68
2023/02/10 10:49:11;;;;;;;1999.90;999.90;;;8.60;99.90;;;;;;5049195;28;21010;-67
2023/02/10 10:51:38;;;;;;;1999.90;999.90;;;8.80;99.90;;;;;;5045404;28;20423;-68
2023/02/10 10:54:05;;;;;;;1999.90;999.90;;;8.90;99.90;;;;;;5049086;28;20408;-67
2023/02/10 10:56:44;;;;;;;1999.90;999.90;;;8.90;99.90;;;;;;5047320;28;20413;-68
2023/02/10 10:59:14;;;;;;;1999.90;999.90;;;8.90;99.90;;;;;;5043573;28;20487;-68
2023/02/10 11:01:43;;;;;;;1999.90;999.90;;;9.10;99.90;;;;;;5024907;28;20405;-68
2023/02/10 11:04:18;;;;;;;1999.90;999.90;;;9.10;99.90;;;;;;5043306;28;20415;-68
2023/02/10 11:06:49;;;;;;;1999.90;999.90;;;9.20;99.90;;;;;;5044301;28;20414;-68
2023/02/10 11:09:23;;;;;;;1999.90;999.90;;;9.30;99.90;;;;;;5049334;28;20442;-68
2023/02/10 11:11:50;;;;;;;1999.90;999.90;;;9.40;99.90;;;;;;5031530;28;20480;-68
2023/02/10 11:14:26;;;;;;;1999.90;999.90;;;9.40;99.90;;;;;;5045240;28;20405;-67
2023/02/10 11:16:57;;;;;;;1999.90;999.90;;;9.80;99.90;;;;;;5044956;28;20470;-68
2023/02/10 11:19:29;;;;;;;1999.90;999.90;;;9.80;99.90;;;;;;5044840;28;20530;-67
2023/02/10 11:21:55;;;;;;;1999.90;999.90;;;9.80;99.90;;;;;;5025878;28;20493;-67
2023/02/10 11:24:25;;;;;;;1999.90;999.90;;;9.80;99.90;;;;;;5042964;28;20406;-68
2023/02/10 11:26:55;;;;;;;1999.90;999.90;;;9.80;99.90;;;;;;5043924;28;20505;-69
2023/02/10 11:29:20;;;;;;;1999.90;999.90;;;9.70;99.90;;;;;;5045572;28;20448;-68
2023/02/10 11:31:46;;;;;;;1999.90;999.90;;;9.60;99.90;;;;;;5045421;28;20449;-69
2023/02/10 11:34:45;;;;;;;1999.90;999.90;;;9.70;99.90;;;;;;5026272;28;20209;-69
2023/02/10 11:37:21;;;;;;;1999.90;999.90;;;9.60;99.90;;;;;;5043999;28;20207;-69
2023/02/10 11:39:47;;;;;;;1999.90;999.90;;;9.70;99.90;;;;;;5047969;28;20439;-68
2023/02/10 11:42:23;;;;;;;1999.90;999.90;;;9.60;99.90;;;;;;5044002;28;20415;-69
2023/02/10 11:44:59;;;;;;;1999.90;999.90;;;9.50;99.90;;;;;;5045885;28;20476;-69
2023/02/10 11:47:31;;;;;;;1999.90;999.90;;;9.40;99.90;;;;;;5045859;28;20416;-69
2023/02/10 11:49:57;;;;;;;1999.90;999.90;;;9.50;99.90;;;;;;5047124;28;20433;-69
2023/02/10 11:52:25;;;;;;;1999.90;999.90;;;9.40;99.90;;;;;;5046626;28;20448;-68
2023/02/10 11:54:51;;;;;;;1999.90;999.90;;;9.50;99.90;;;;;;5029741;28;20443;-69
2023/02/10 12:00:36;;;;;;;1999.90;999.90;;;10.00;99.90;;;;;;5047983;28;20445;-68
2023/02/10 12:03:25;;;;;;;1999.90;999.90;;;10.90;99.90;;;;;;5047701;28;20512;-69
2023/02/10 12:06:18;;;;;;;1999.90;999.90;;;11.60;99.90;;;;;;5046932;28;20423;-69
2023/02/10 12:09:02;;;;;;;1999.90;999.90;;;11.80;99.90;;;;;;5029482;28;20423;-69
2023/02/10 12:11:57;;;;;;;1999.90;999.90;;;12.80;99.90;;;;;;5049163;28;20388;-69
2023/02/10 12:14:47;;;;;;;1999.90;999.90;;;13.30;99.90;;;;;;5018667;28;20407;-68
2023/02/10 12:17:30;;;;;;;1999.90;999.90;;;13.30;99.90;;;;;;5035221;28;20409;-68
2023/02/10 12:20:02;;;;;;;1999.90;999.90;;;13.40;99.90;;;;;;5035845;28;20444;-69
2023/02/10 12:22:52;;;;;;;1999.90;999.90;;;13.90;99.90;;;;;;5035678;28;20406;-69